Time;durP1;ratioP1;P1;durP2;ratioP2;P2;SDS_P1;SDS_P2;PMS_P1;PMS_P2;Temp;Humidity;BMP_temperature;BMP_pressure;BME280_temperature;BME280_humidity;BME280_pressure;Samples;Min_cycle;Max_cycle;Signal;HPM_P1;HPM_P2
2023/09/26 00:02:14;;;;;;;10.70;9.13;;;;;;;13.73;100.00;154887.25;4968900;28;20479;-85
2023/09/26 00:04:41;;;;;;;9.30;8.27;;;;;;;13.65;100.00;154865.19;4969946;28;20492;-85
2023/09/26 00:07:08;;;;;;;9.40;8.50;;;;;;;13.59;100.00;154850.91;4969204;28;20446;-85
2023/09/26 00:09:36;;;;;;;10.30;9.30;;;;;;;13.49;100.00;154824.94;4948079;28;20482;-85
2023/09/26 00:12:03;;;;;;;10.20;8.70;;;;;;;13.49;100.00;154824.94;4975220;28;20449;-85
2023/09/26 00:14:29;;;;;;;11.20;10.10;;;;;;;13.44;100.00;154811.97;4973552;28;20498;-85
2023/09/26 00:16:58;;;;;;;10.27;9.17;;;;;;;13.40;100.00;154802.88;4967931;28;20463;-85
2023/09/26 00:19:25;;;;;;;10.00;8.90;;;;;;;13.37;100.00;154795.09;4948803;28;20487;-85
2023/09/26 00:21:52;;;;;;;9.73;8.43;;;;;;;13.33;100.00;154784.72;4971327;28;20458;-84
2023/09/26 00:24:18;;;;;;;9.83;8.20;;;;;;;13.27;100.00;154769.13;4968613;28;20477;-85
2023/09/26 00:26:46;;;;;;;12.80;9.00;;;;;;;13.25;100.00;154763.97;4965035;28;20460;-85
2023/09/26 00:29:13;;;;;;;9.77;8.77;;;;;;;13.20;100.00;154751.00;4949168;28;20486;-84
2023/09/26 00:31:40;;;;;;;9.27;8.37;;;;;;;13.17;100.00;154743.22;4971192;28;20441;-84
2023/09/26 00:34:07;;;;;;;13.27;9.47;;;;;;;13.16;100.00;154739.28;4985371;28;20447;-85
2023/09/26 00:36:33;;;;;;;9.50;8.60;;;;;;;13.11;100.00;154726.31;4965994;28;20457;-85
2023/09/26 00:39:00;;;;;;;10.63;8.30;;;;;;;13.05;100.00;154712.00;4984355;28;20518;-85
2023/09/26 00:41:27;;;;;;;8.43;7.63;;;;;;;12.97;100.00;154691.28;4969040;28;20478;-85
2023/09/26 00:43:54;;;;;;;9.73;8.73;;;;;;;12.89;100.00;154670.53;4950481;28;20544;-84
2023/09/26 00:46:21;;;;;;;9.73;8.73;;;;;;;12.87;100.00;154665.28;4977101;28;20442;-85
2023/09/26 00:48:48;;;;;;;10.33;9.27;;;;;;;12.87;100.00;154665.28;4969068;28;20474;-85
2023/09/26 00:51:15;;;;;;;10.40;9.40;;;;;;;12.87;100.00;154665.28;4957778;28;20467;-85
2023/09/26 00:53:42;;;;;;;11.97;8.60;;;;;;;12.85;100.00;154660.13;4943213;28;20858;-84
2023/09/26 00:56:09;;;;;;;10.80;9.50;;;;;;;12.84;100.00;154658.81;4968531;28;20565;-85
2023/09/26 00:58:36;;;;;;;12.10;9.47;;;;;;;12.80;100.00;154648.47;4971196;28;20459;-85
2023/09/26 01:01:05;;;;;;;10.43;8.70;;;;;;;12.81;100.00;154651.03;4970431;28;20485;-85
2023/09/26 01:03:32;;;;;;;10.37;8.80;;;;;;;12.80;100.00;154647.16;4968032;28;20455;-85
2023/09/26 01:06:01;;;;;;;10.40;9.00;;;;;;;12.83;100.00;154654.94;4964231;28;20584;-85
2023/09/26 01:08:27;;;;;;;9.77;8.80;;;;;;;12.83;100.00;154654.94;4979205;28;20473;-85
2023/09/26 01:10:54;;;;;;;10.33;9.20;;;;;;;12.80;100.00;154648.47;4974600;28;20821;-85
2023/09/26 01:13:21;;;;;;;10.37;9.27;;;;;;;12.77;100.00;154639.38;4967641;28;20459;-85
2023/09/26 01:15:47;;;;;;;11.20;10.00;;;;;;;12.74;100.00;154631.56;4958418;28;20442;-85
2023/09/26 01:18:16;;;;;;;11.20;9.27;;;;;;;12.73;100.00;154629.00;4953866;28;20442;-85
2023/09/26 01:20:44;;;;;;;10.77;8.30;;;;;;;12.62;100.00;154600.47;4966600;28;20466;-85
2023/09/26 01:23:11;;;;;;;11.27;10.07;;;;;;;12.54;100.00;154581.03;4965795;28;20450;-85
2023/09/26 01:25:40;;;;;;;10.70;9.60;;;;;;;12.50;100.00;154570.63;4966443;28;20481;-85
2023/09/26 01:28:07;;;;;;;10.27;8.57;;;;;;;12.46;100.00;154558.97;4968417;28;20475;-85
2023/09/26 01:30:34;;;;;;;13.30;8.57;;;;;;;12.47;100.00;154561.59;4966995;28;20477;-85
2023/09/26 01:33:01;;;;;;;11.17;10.00;;;;;;;12.52;100.00;154574.53;4953632;28;20494;-85
2023/09/26 01:35:27;;;;;;;11.37;10.17;;;;;;;12.52;100.00;154574.53;4978903;28;20996;-85
2023/09/26 01:37:54;;;;;;;12.83;10.43;;;;;;;12.48;100.00;154564.16;4977276;28;20450;-85
2023/09/26 01:40:20;;;;;;;11.53;10.40;;;;;;;12.50;100.00;154569.31;4963979;28;20457;-86
2023/09/26 01:42:48;;;;;;;12.23;10.70;;;;;;;12.47;100.00;154561.59;4961851;28;20517;-85
2023/09/26 01:45:15;;;;;;;12.13;10.83;;;;;;;12.46;100.00;154560.28;4943031;28;20463;-85
2023/09/26 01:47:46;;;;;;;12.40;10.70;;;;;;;12.46;100.00;154558.97;4946117;28;21030;-85
2023/09/26 01:50:14;;;;;;;11.50;9.70;;;;;;;12.44;100.00;154555.09;4968757;28;20989;-85
2023/09/26 01:52:41;;;;;;;10.83;9.50;;;;;;;12.44;100.00;154555.09;4948179;28;20465;-85
2023/09/26 01:55:13;;;;;;;13.47;10.90;;;;;;;12.44;100.00;154553.78;4960224;28;20489;-85
2023/09/26 01:57:40;;;;;;;11.73;10.17;;;;;;;12.44;100.00;154553.78;4947645;28;20541;-85
2023/09/26 02:00:11;;;;;;;10.73;9.63;;;;;;;12.43;100.00;154552.50;4961754;28;21222;-85
2023/09/26 02:02:41;;;;;;;11.57;10.13;;;;;;;12.43;100.00;154551.19;4975882;28;20566;-85
2023/09/26 02:05:08;;;;;;;10.83;9.67;;;;;;;12.43;100.00;154551.19;4967178;28;20482;-85
2023/09/26 02:07:35;;;;;;;10.40;9.40;;;;;;;12.44;100.00;154555.09;4952380;28;20464;-85
2023/09/26 02:10:04;;;;;;;11.23;10.03;;;;;;;12.45;100.00;154557.66;4982582;28;20605;-86
2023/09/26 02:12:31;;;;;;;12.60;10.03;;;;;;;12.46;100.00;154560.28;4967725;28;20474;-86
2023/09/26 02:14:57;;;;;;;12.00;9.97;;;;;;;12.45;100.00;154557.66;4964010;28;20475;-86
2023/09/26 02:17:25;;;;;;;11.63;9.33;;;;;;;12.45;100.00;154556.34;4965140;28;21020;-85
2023/09/26 02:19:52;;;;;;;11.60;9.57;;;;;;;12.44;100.00;154553.78;4969038;28;20458;-85
2023/09/26 02:22:18;;;;;;;10.60;9.50;;;;;;;12.43;100.00;154552.50;4971653;28;20452;-85
2023/09/26 02:24:45;;;;;;;10.43;9.30;;;;;;;12.38;100.00;154538.22;4953572;28;20471;-85
2023/09/26 02:27:13;;;;;;;10.90;8.90;;;;;;;12.35;100.00;154531.75;4986150;28;20447;-85
2023/09/26 02:29:39;;;;;;;12.47;10.97;;;;;;;12.33;100.00;154526.56;4962516;28;20482;-85
2023/09/26 02:32:06;;;;;;;13.10;11.57;;;;;;;12.33;100.00;154525.25;4954095;28;20452;-86
2023/09/26 02:34:34;;;;;;;12.73;11.43;;;;;;;12.30;100.00;154517.47;4960841;28;20461;-86
2023/09/26 02:37:00;;;;;;;12.67;11.37;;;;;;;12.27;100.00;154509.69;4960403;28;20477;-85
2023/09/26 02:39:27;;;;;;;13.40;11.77;;;;;;;12.22;100.00;154498.03;4962769;28;20763;-85
2023/09/26 02:41:53;;;;;;;14.97;10.67;;;;;;;12.20;100.00;154492.84;4972521;28;20438;-86
2023/09/26 02:44:20;;;;;;;11.80;10.50;;;;;;;12.16;100.00;154483.78;4948611;28;20544;-85
2023/09/26 02:46:47;;;;;;;13.70;10.73;;;;;;;12.18;100.00;154488.94;4957093;28;20469;-85
2023/09/26 02:49:13;;;;;;;13.67;11.70;;;;;;;12.15;100.00;154481.16;4966701;28;20482;-86
2023/09/26 02:51:41;;;;;;;12.90;11.60;;;;;;;12.14;100.00;154477.28;4971094;28;20822;-86
2023/09/26 02:54:08;;;;;;;12.53;11.23;;;;;;;12.10;100.00;154466.88;4962920;28;20996;-85
2023/09/26 02:56:35;;;;;;;14.37;11.30;;;;;;;12.05;100.00;154453.94;4965836;28;21092;-85
2023/09/26 02:59:02;;;;;;;15.07;12.90;;;;;;;11.99;100.00;154439.66;4971740;28;20431;-86
2023/09/26 03:01:28;;;;;;;13.63;11.57;;;;;;;11.98;100.00;154435.81;4965622;28;20464;-85
2023/09/26 03:03:55;;;;;;;13.13;11.73;;;;;;;11.94;100.00;154425.47;4973578;28;20467;-85
2023/09/26 03:06:22;;;;;;;13.33;11.90;;;;;;;11.95;100.00;154428.00;4947400;28;21032;-85
2023/09/26 03:08:50;;;;;;;16.70;12.63;;;;;;;11.93;100.00;154424.16;4982698;28;20473;-85
2023/09/26 03:11:16;;;;;;;12.87;11.50;;;;;;;11.83;100.00;154396.94;4963765;28;20462;-85
2023/09/26 03:13:44;;;;;;;15.90;13.40;;;;;;;11.80;100.00;154389.16;4963652;28;20548;-85
2023/09/26 03:16:13;;;;;;;16.43;13.20;;;;;;;11.81;100.00;154391.75;4967724;28;20466;-85
2023/09/26 03:18:40;;;;;;;17.20;14.07;;;;;;;11.83;100.00;154398.22;4955194;28;21120;-85
2023/09/26 03:21:07;;;;;;;15.57;13.90;;;;;;;11.84;100.00;154399.50;4945521;28;21065;-85
2023/09/26 03:23:34;;;;;;;15.07;13.23;;;;;;;11.76;100.00;154380.06;4935286;28;20464;-85
2023/09/26 03:26:02;;;;;;;16.87;13.77;;;;;;;11.76;100.00;154380.06;4969910;28;20457;-86
2023/09/26 03:28:29;;;;;;;18.77;16.00;;;;;;;11.78;100.00;154385.22;4962318;28;20812;-85
2023/09/26 03:30:55;;;;;;;18.77;16.50;;;;;;;11.77;100.00;154382.66;4970373;28;20466;-85
2023/09/26 03:33:22;;;;;;;21.83;17.33;;;;;;;11.78;100.00;154385.22;4969302;28;20458;-84
2023/09/26 03:35:49;;;;;;;21.23;17.57;;;;;;;11.81;100.00;154391.75;4973110;28;20486;-85
2023/09/26 03:38:15;;;;;;;19.07;15.37;;;;;;;11.83;100.00;154398.22;4972669;28;20469;-85
2023/09/26 03:40:42;;;;;;;16.50;14.70;;;;;;;11.87;100.00;154408.56;4950569;28;20835;-85
2023/09/26 03:43:10;;;;;;;19.80;16.30;;;;;;;11.83;100.00;154398.22;4949321;28;20452;-85
2023/09/26 03:45:36;;;;;;;18.77;16.17;;;;;;;11.75;100.00;154376.19;4979206;28;20557;-85
2023/09/26 03:48:03;;;;;;;22.60;17.93;;;;;;;11.69;100.00;154361.94;4962644;28;20459;-85
2023/09/26 03:50:30;;;;;;;20.80;16.80;;;;;;;11.64;100.00;154348.94;4954140;28;20528;-85
2023/09/26 03:52:56;;;;;;;18.97;15.73;;;;;;;11.57;100.00;154330.75;4976725;28;20450;-85
2023/09/26 03:55:23;;;;;;;18.10;15.03;;;;;;;11.53;100.00;154320.41;4968859;28;20528;-85
2023/09/26 03:57:50;;;;;;;18.90;16.57;;;;;;;11.57;100.00;154330.75;4977841;28;20467;-85
2023/09/26 04:00:19;;;;;;;18.73;16.40;;;;;;;11.60;100.00;154338.53;4964832;28;20462;-84
2023/09/26 04:02:45;;;;;;;18.63;15.90;;;;;;;11.55;100.00;154326.88;4979333;28;20945;-84
2023/09/26 04:05:12;;;;;;;17.70;14.60;;;;;;;11.54;100.00;154323.03;4973584;28;20973;-84
2023/09/26 04:07:40;;;;;;;18.33;16.40;;;;;;;11.51;100.00;154315.25;4971713;28;20460;-85
2023/09/26 04:10:08;;;;;;;18.73;14.90;;;;;;;11.44;100.00;154298.38;4959762;28;20482;-84
2023/09/26 04:12:35;;;;;;;17.00;15.13;;;;;;;11.40;100.00;154286.72;4963211;28;20583;-84
2023/09/26 04:15:01;;;;;;;18.27;15.10;;;;;;;11.37;100.00;154278.94;4956413;28;20860;-84
2023/09/26 04:17:29;;;;;;;17.87;15.40;;;;;;;11.35;100.00;154273.78;4952758;28;20459;-84
2023/09/26 04:19:57;;;;;;;17.93;16.00;;;;;;;11.34;100.00;154271.16;4971870;28;20496;-84
2023/09/26 04:22:24;;;;;;;18.17;15.97;;;;;;;11.33;100.00;154268.59;4978857;28;20870;-84
2023/09/26 04:24:50;;;;;;;18.70;15.27;;;;;;;11.30;100.00;154260.81;4967309;28;20465;-84
2023/09/26 04:27:17;;;;;;;20.43;15.83;;;;;;;11.31;100.00;154263.38;4970664;28;20477;-84
2023/09/26 04:29:43;;;;;;;15.23;12.63;;;;;;;11.27;100.00;154253.03;4965622;28;21067;-84
2023/09/26 04:32:11;;;;;;;15.87;12.80;;;;;;;11.27;100.00;154254.34;4953555;28;20498;-84
2023/09/26 04:34:39;;;;;;;15.97;13.00;;;;;;;11.29;100.00;154258.22;4968390;28;20462;-84
2023/09/26 04:37:07;;;;;;;19.67;14.33;;;;;;;11.28;100.00;154256.91;4968714;28;20442;-84
2023/09/26 04:39:34;;;;;;;16.00;13.83;;;;;;;11.27;100.00;154253.03;4968513;28;20977;-84
2023/09/26 04:42:00;;;;;;;15.93;13.70;;;;;;;11.26;100.00;154250.44;4949098;28;20831;-84
2023/09/26 04:44:27;;;;;;;16.30;13.70;;;;;;;11.24;100.00;154245.25;4969366;28;20829;-83
2023/09/26 04:46:53;;;;;;;15.17;12.83;;;;;;;11.22;100.00;154240.09;4952765;28;20472;-84
2023/09/26 04:49:20;;;;;;;16.30;13.60;;;;;;;11.19;100.00;154232.31;4966946;28;20477;-83
2023/09/26 04:51:48;;;;;;;14.80;12.50;;;;;;;11.16;100.00;154224.53;4959936;28;20450;-84
2023/09/26 04:54:15;;;;;;;14.37;12.57;;;;;;;11.12;100.00;154214.19;4963552;28;20501;-84
2023/09/26 04:56:42;;;;;;;12.70;11.40;;;;;;;11.08;100.00;154203.81;4965607;28;20462;-84
2023/09/26 04:59:08;;;;;;;15.03;12.80;;;;;;;11.07;100.00;154202.50;4958535;28;20465;-84
2023/09/26 05:01:36;;;;;;;13.30;11.37;;;;;;;11.01;100.00;154187.00;4967383;28;20561;-83
2023/09/26 05:04:03;;;;;;;13.73;12.33;;;;;;;10.99;100.00;154181.78;4968013;28;20457;-83
2023/09/26 05:06:30;;;;;;;12.67;10.80;;;;;;;10.98;100.00;154179.22;4933798;28;21170;-83
2023/09/26 05:08:58;;;;;;;14.10;11.00;;;;;;;10.97;100.00;154177.91;4957263;28;20550;-87
2023/09/26 05:11:26;;;;;;;13.50;12.13;;;;;;;10.94;100.00;154170.13;4945105;28;20461;-87
2023/09/26 05:13:52;;;;;;;12.53;10.70;;;;;;;10.88;100.00;154154.56;4924652;28;20525;-86
2023/09/26 05:16:19;;;;;;;14.00;10.57;;;;;;;10.86;100.00;154149.41;4924618;28;20520;-87
2023/09/26 05:18:46;;;;;;;12.10;10.50;;;;;;;10.85;100.00;154145.53;4942300;28;20453;-87
2023/09/26 05:21:13;;;;;;;13.37;10.90;;;;;;;10.83;100.00;154141.63;4971891;28;20451;-86
2023/09/26 05:23:40;;;;;;;13.90;11.37;;;;;;;10.83;100.00;154141.63;4943659;28;20466;-86
2023/09/26 05:26:09;;;;;;;13.17;11.60;;;;;;;10.81;100.00;154135.16;4931752;28;20471;-86
2023/09/26 05:28:36;;;;;;;14.97;11.20;;;;;;;10.80;100.00;154133.84;4945905;28;20547;-87
2023/09/26 05:31:03;;;;;;;15.20;10.90;;;;;;;10.80;100.00;154133.84;4948574;28;20486;-87
2023/09/26 05:33:29;;;;;;;12.17;10.77;;;;;;;10.81;100.00;154135.16;4929586;28;20969;-87
2023/09/26 05:35:56;;;;;;;12.03;10.63;;;;;;;10.80;100.00;154133.84;4926110;29;20465;-86
2023/09/26 05:38:23;;;;;;;11.30;10.20;;;;;;;10.82;100.00;154137.78;4960487;28;20458;-87
2023/09/26 05:40:51;;;;;;;13.90;10.27;;;;;;;10.84;100.00;154144.25;4929649;28;20470;-91
2023/09/26 05:43:19;;;;;;;12.33;11.13;;;;;;;10.85;100.00;154146.84;4972373;28;20460;-86
2023/09/26 05:45:48;;;;;;;15.93;11.67;;;;;;;10.83;100.00;154141.63;4941580;28;20457;-87
2023/09/26 05:48:15;;;;;;;12.97;11.57;;;;;;;10.86;100.00;154149.41;4943841;28;20446;-87
2023/09/26 05:50:41;;;;;;;12.33;10.50;;;;;;;10.88;100.00;154154.56;4975383;28;20486;-87
2023/09/26 05:53:08;;;;;;;11.60;10.40;;;;;;;10.90;100.00;154159.78;4958265;28;20466;-87
2023/09/26 05:55:34;;;;;;;12.70;10.50;;;;;;;10.92;100.00;154164.97;4941690;28;20458;-87
2023/09/26 05:58:01;;;;;;;12.90;9.80;;;;;;;10.94;100.00;154168.81;4960800;28;20484;-87
2023/09/26 06:00:29;;;;;;;10.33;9.27;;;;;;;10.97;100.00;154177.91;4956547;28;20457;-88
2023/09/26 06:02:55;;;;;;;11.73;9.90;;;;;;;11.00;100.00;154184.38;4973637;28;20511;-88
2023/09/26 06:05:22;;;;;;;10.60;9.07;;;;;;;11.06;100.00;154198.63;4945849;28;20470;-88
2023/09/26 06:07:51;;;;;;;11.97;10.73;;;;;;;11.16;100.00;154224.53;4944265;28;20509;-87
2023/09/26 06:10:19;;;;;;;12.90;10.77;;;;;;;11.27;100.00;154253.03;4944468;28;20499;-87
2023/09/26 06:12:45;;;;;;;11.43;10.20;;;;;;;11.42;100.00;154293.19;4940388;28;20803;-86
2023/09/26 06:15:12;;;;;;;11.33;10.10;;;;;;;11.65;100.00;154351.50;4975622;28;20553;-85
2023/09/26 06:17:40;;;;;;;10.90;9.80;;;;;;;11.91;100.00;154417.66;4974750;28;20881;-85
2023/09/26 06:20:09;;;;;;;11.50;10.40;;;;;;;12.20;100.00;154492.84;4974405;28;20509;-85
2023/09/26 06:22:36;;;;;;;11.90;10.70;;;;;;;12.53;100.00;154577.09;4940487;28;20817;-86
2023/09/26 06:25:04;;;;;;;10.37;9.37;;;;;;;12.81;100.00;154651.03;4940636;28;21038;-86
2023/09/26 06:27:34;;;;;;;11.07;9.97;;;;;;;13.12;100.00;154730.22;4974548;28;20461;-86
2023/09/26 06:30:00;;;;;;;10.67;9.57;;;;;;;13.39;100.00;154800.31;4948198;28;20537;-85
2023/09/26 06:32:27;;;;;;;10.97;9.47;;;;;;;13.67;100.00;154870.34;4970927;28;20465;-85
2023/09/26 06:34:59;;;;;;;9.87;8.87;;;;;;;13.93;100.00;154937.84;4941606;28;20950;-86
2023/09/26 06:37:25;;;;;;;13.50;7.93;;;;;;;14.17;100.00;155000.19;4941193;28;20455;-86
2023/09/26 06:39:52;;;;;;;10.23;9.00;;;;;;;14.38;100.00;155054.75;4941642;28;21040;-85
2023/09/26 06:42:18;;;;;;;8.40;7.60;;;;;;;14.59;100.00;155109.31;4958824;28;20450;-85
2023/09/26 06:44:45;;;;;;;10.43;9.43;;;;;;;14.84;100.00;155171.66;4931270;28;20548;-86
2023/09/26 06:47:12;;;;;;;8.30;7.50;;;;;;;15.05;99.76;155226.22;4939402;28;20829;-86
2023/09/26 06:49:38;;;;;;;8.07;7.37;;;;;;;15.25;99.02;155278.19;4939764;28;20457;-86
2023/09/26 06:52:06;;;;;;;8.27;7.00;;;;;;;15.44;97.84;155327.59;4960828;28;20525;-87
2023/09/26 06:54:33;;;;;;;8.60;7.20;;;;;;;15.69;96.40;155392.66;4985599;28;20458;-86
2023/09/26 06:56:59;;;;;;;7.87;7.07;;;;;;;15.99;95.29;155468.06;4979923;28;21082;-85
2023/09/26 06:59:26;;;;;;;7.53;6.83;;;;;;;16.26;93.80;155539.56;4943262;28;20462;-86
2023/09/26 07:01:52;;;;;;;8.83;7.53;;;;;;;16.56;93.05;155616.34;4966535;28;20481;-86
2023/09/26 07:04:19;;;;;;;7.80;7.00;;;;;;;16.80;91.45;155677.47;4974855;28;20454;-86
2023/09/26 07:06:46;;;;;;;8.03;6.67;;;;;;;16.99;89.46;155728.25;4988323;28;20458;-86
2023/09/26 07:09:14;;;;;;;7.73;7.03;;;;;;;17.19;88.41;155777.66;4943826;28;22024;-86
2023/09/26 07:11:41;;;;;;;8.10;7.40;;;;;;;17.35;87.71;155819.31;4966310;28;20910;-86
2023/09/26 07:14:08;;;;;;;7.57;6.87;;;;;;;17.52;87.11;155864.91;4941771;28;20828;-86
2023/09/26 07:16:35;;;;;;;7.40;6.47;;;;;;;17.70;86.06;155910.50;4971236;28;20851;-86
2023/09/26 07:19:01;;;;;;;7.13;6.43;;;;;;;17.81;85.43;155939.16;4955238;28;20459;-87
2023/09/26 07:21:28;;;;;;;7.40;6.70;;;;;;;17.99;85.06;155986.00;4959509;28;20460;-86
2023/09/26 07:23:59;;;;;;;7.33;6.00;;;;;;;18.20;84.15;156039.38;4971917;28;20458;-86
2023/09/26 07:26:28;;;;;;;7.50;6.80;;;;;;;18.44;82.52;156100.59;4970570;28;20470;-86
2023/09/26 07:28:58;;;;;;;8.80;6.53;;;;;;;18.57;81.33;156134.53;4972207;28;20982;-87
2023/09/26 07:31:29;;;;;;;7.43;6.73;;;;;;;18.74;81.14;156178.84;4975398;28;20486;-87
2023/09/26 07:33:56;;;;;;;7.23;6.53;;;;;;;18.90;80.92;156220.53;4972679;28;20466;-87
2023/09/26 07:36:23;;;;;;;8.77;7.20;;;;;;;19.06;80.07;156262.19;4972891;28;20453;-87
2023/09/26 07:38:50;;;;;;;8.23;7.23;;;;;;;19.21;79.40;156301.31;4948725;28;20460;-86
2023/09/26 07:41:16;;;;;;;7.70;6.97;;;;;;;19.33;75.94;156332.56;4962353;28;20461;-87
2023/09/26 07:43:47;;;;;;;8.33;7.20;;;;;;;19.42;75.87;156356.09;4958269;28;20455;-87
2023/09/26 07:46:14;;;;;;;7.00;6.30;;;;;;;19.56;74.54;156390.00;4962301;28;20451;-86
2023/09/26 07:48:42;;;;;;;7.63;7.03;;;;;;;19.59;75.90;156397.81;4960473;28;21001;-86
2023/09/26 07:51:10;;;;;;;7.40;6.67;;;;;;;19.62;77.48;156405.66;4970610;28;20494;-86
2023/09/26 07:53:37;;;;;;;10.27;7.40;;;;;;;19.59;76.04;156397.81;4975456;28;20581;-87
2023/09/26 07:56:04;;;;;;;7.30;6.63;;;;;;;19.70;76.26;156426.47;4960655;28;20454;-86
2023/09/26 07:58:31;;;;;;;9.57;6.30;;;;;;;19.94;76.75;156489.06;4977149;28;20469;-86
2023/09/26 08:01:08;;;;;;;7.77;6.87;;;;;;;19.92;75.70;156485.16;4966625;28;20508;-86
2023/09/26 08:03:35;;;;;;;6.60;6.00;;;;;;;19.93;76.90;156486.47;4958198;28;20954;-86
2023/09/26 08:06:02;;;;;;;9.10;6.87;;;;;;;19.83;75.19;156460.41;4961390;28;20454;-86
2023/09/26 08:08:29;;;;;;;7.90;6.50;;;;;;;19.82;75.72;156457.78;4948303;28;20481;-87
2023/09/26 08:10:56;;;;;;;7.83;7.03;;;;;;;19.83;75.75;156460.41;4957632;28;20473;-86
2023/09/26 08:13:32;;;;;;;8.40;7.60;;;;;;;19.85;74.69;156466.94;4930087;28;20454;-86
2023/09/26 08:15:59;;;;;;;7.07;6.47;;;;;;;19.89;74.32;156477.34;4947040;28;20531;-86
2023/09/26 08:18:27;;;;;;;8.03;6.47;;;;;;;19.84;74.83;156464.31;4978374;28;20484;-86
2023/09/26 08:20:57;;;;;;;9.70;6.67;;;;;;;19.80;77.72;156452.59;4977013;28;20469;-87
2023/09/26 08:23:24;;;;;;;6.30;5.80;;;;;;;19.66;76.49;156416.06;4960731;28;20458;-86
2023/09/26 08:25:50;;;;;;;6.67;6.07;;;;;;;19.60;77.53;156401.72;4980507;28;20461;-87
2023/09/26 08:28:17;;;;;;;7.20;6.50;;;;;;;19.52;77.89;156379.53;4977729;28;20458;-87
2023/09/26 08:30:44;;;;;;;8.00;7.30;;;;;;;19.42;77.54;156356.09;4943018;28;20483;-86
2023/09/26 08:33:10;;;;;;;6.83;5.90;;;;;;;19.37;78.06;156343.06;4968667;28;20459;-87
2023/09/26 08:35:38;;;;;;;8.17;6.00;;;;;;;19.34;78.74;156333.88;4943353;28;21052;-87
2023/09/26 08:38:05;;;;;;;7.70;7.00;;;;;;;19.33;79.33;156331.25;4949208;28;20549;-87
2023/09/26 08:40:33;;;;;;;8.30;6.90;;;;;;;19.23;80.81;156306.53;4941319;28;20455;-87
2023/09/26 08:43:00;;;;;;;7.57;6.60;;;;;;;19.08;81.64;156266.13;4958628;28;20761;-87
2023/09/26 08:45:27;;;;;;;8.20;7.40;;;;;;;19.05;78.71;156258.28;4974626;28;20861;-86
2023/09/26 08:47:54;;;;;;;7.63;6.90;;;;;;;19.28;77.31;156319.53;4974389;28;20461;-87
2023/09/26 08:50:22;;;;;;;8.13;7.43;;;;;;;19.30;76.59;156324.75;4930960;28;20605;-86
2023/09/26 08:52:50;;;;;;;8.37;7.57;;;;;;;19.42;76.84;156354.78;4951668;28;20789;-87
2023/09/26 08:55:17;;;;;;;10.50;7.60;;;;;;;19.52;75.95;156380.84;4958919;28;20467;-87
2023/09/26 08:57:44;;;;;;;6.87;6.20;;;;;;;19.58;76.82;156395.19;4947897;28;20453;-87
2023/09/26 09:00:13;;;;;;;9.30;7.70;;;;;;;19.57;77.95;156392.56;4965881;28;21270;-87
2023/09/26 09:02:39;;;;;;;8.30;7.50;;;;;;;19.50;76.64;156374.34;4966458;28;20486;-87
2023/09/26 09:05:07;;;;;;;8.27;7.37;;;;;;;19.47;77.23;156367.81;4961703;28;20446;-87
2023/09/26 09:07:34;;;;;;;9.37;7.97;;;;;;;19.51;77.23;156378.28;4966832;28;20493;-86
2023/09/26 09:10:06;;;;;;;9.20;8.03;;;;;;;19.57;75.22;156392.56;4953534;28;20848;-86
2023/09/26 09:12:34;;;;;;;9.30;8.40;;;;;;;19.41;75.57;156353.47;4960160;28;20459;-86
2023/09/26 09:15:01;;;;;;;9.70;8.70;;;;;;;19.29;76.20;156320.84;4969508;28;20458;-87
2023/09/26 09:17:39;;;;;;;8.40;7.60;;;;;;;19.22;77.44;156302.63;4946088;28;20453;-87
2023/09/26 09:20:07;;;;;;;8.60;7.80;;;;;;;19.24;80.69;156309.13;4942799;28;20889;-87
2023/09/26 09:22:34;;;;;;;9.40;8.50;;;;;;;19.18;78.89;156293.50;4946348;28;21044;-87
2023/09/26 09:25:01;;;;;;;9.53;8.57;;;;;;;19.10;77.97;156272.63;4951187;28;20466;-87
2023/09/26 09:27:34;;;;;;;9.03;7.60;;;;;;;19.02;78.86;156251.78;4962169;28;20457;-87
2023/09/26 09:30:05;;;;;;;7.57;6.83;;;;;;;19.15;79.61;156285.66;4951865;28;20458;-87
2023/09/26 09:32:32;;;;;;;7.90;7.03;;;;;;;19.33;78.89;156332.56;4932742;28;20469;-87
2023/09/26 09:34:58;;;;;;;7.97;7.27;;;;;;;19.37;77.79;156343.06;4931347;28;20457;-87
2023/09/26 09:37:25;;;;;;;8.40;7.60;;;;;;;19.31;77.00;156326.06;4940841;28;20451;-87
2023/09/26 09:39:52;;;;;;;8.90;7.70;;;;;;;19.19;77.22;156296.13;4965528;28;20465;-87
2023/09/26 09:42:20;;;;;;;8.20;7.07;;;;;;;19.07;78.44;156263.50;4941157;28;20462;-87
2023/09/26 09:44:48;;;;;;;9.17;7.67;;;;;;;19.14;79.17;156283.03;4952101;28;20464;-86
2023/09/26 09:47:21;;;;;;;7.17;6.57;;;;;;;19.20;79.10;156297.38;4953544;28;20461;-86
2023/09/26 09:49:49;;;;;;;8.57;7.77;;;;;;;19.32;78.37;156330.00;4940047;28;20457;-87
2023/09/26 09:52:18;;;;;;;9.10;8.20;;;;;;;19.26;80.05;156314.34;4925795;28;20474;-86
2023/09/26 09:54:46;;;;;;;7.13;6.47;;;;;;;19.21;79.72;156301.31;4945655;28;20468;-86
2023/09/26 09:57:15;;;;;;;7.97;7.17;;;;;;;19.35;79.04;156337.78;4948387;28;20517;-87
2023/09/26 09:59:43;;;;;;;7.60;6.90;;;;;;;19.43;79.14;156358.69;4959858;28;20466;-86
2023/09/26 10:02:13;;;;;;;8.10;7.27;;;;;;;19.45;78.73;156362.63;4953397;28;20474;-86
2023/09/26 10:05:12;;;;;;;9.23;6.87;;;;;;;19.45;79.60;156362.63;4941495;28;20463;-86
2023/09/26 10:07:40;;;;;;;6.90;6.20;;;;;;;19.39;79.36;156346.97;4926941;29;20460;-86
2023/09/26 10:10:09;;;;;;;6.70;5.80;;;;;;;19.47;79.26;156366.50;4963298;28;20458;-86
2023/09/26 10:12:36;;;;;;;8.33;6.37;;;;;;;19.48;78.80;156370.44;4979336;28;20489;-88
2023/09/26 10:15:03;;;;;;;6.53;5.93;;;;;;;19.56;76.85;156391.31;4972593;28;20456;-87
2023/09/26 10:17:31;;;;;;;5.97;5.47;;;;;;;19.48;76.57;156369.13;4957435;28;20469;-88
2023/09/26 10:19:57;;;;;;;5.17;4.67;;;;;;;19.55;77.71;156388.69;4956325;28;20469;-87
2023/09/26 10:22:34;;;;;;;5.40;4.90;;;;;;;19.60;77.00;156400.41;4960661;28;20507;-87
2023/09/26 10:25:02;;;;;;;4.57;4.00;;;;;;;19.58;77.98;156396.50;4969040;28;20552;-87
2023/09/26 10:27:39;;;;;;;4.73;4.00;;;;;;;19.54;77.02;156384.78;4943415;28;20457;-87
2023/09/26 10:30:09;;;;;;;5.57;3.93;;;;;;;19.46;75.47;156363.94;4969597;28;20596;-87
2023/09/26 10:32:39;;;;;;;5.50;3.77;;;;;;;19.53;76.38;156382.16;4945669;28;20799;-87
2023/09/26 10:35:24;;;;;;;4.23;3.83;;;;;;;19.49;76.05;156373.03;4953902;28;20957;-88
2023/09/26 10:37:54;;;;;;;4.57;3.90;;;;;;;19.54;76.58;156384.78;4941277;28;20983;-87
2023/09/26 10:40:22;;;;;;;6.83;5.70;;;;;;;19.53;82.91;156382.16;4942890;28;20548;-87
2023/09/26 10:42:49;;;;;;;4.83;3.50;;;;;;;19.41;76.65;156353.47;4957797;28;20823;-87
2023/09/26 10:45:16;;;;;;;7.17;4.60;;;;;;;19.63;75.48;156408.22;4954893;28;20504;-87
2023/09/26 10:47:44;;;;;;;4.67;4.27;;;;;;;19.75;76.48;156439.56;4949012;28;21136;-88
2023/09/26 10:50:13;;;;;;;7.17;4.70;;;;;;;19.67;78.43;156418.69;4969233;28;20454;-87
2023/09/26 10:52:46;;;;;;;3.77;3.40;;;;;;;19.66;74.77;156416.06;4956594;28;20472;-87
2023/09/26 10:55:13;;;;;;;6.13;4.90;;;;;;;19.71;73.67;156430.41;4947991;28;20450;-87
2023/09/26 10:57:40;;;;;;;4.93;4.53;;;;;;;19.82;74.25;156459.09;4946040;28;20454;-88
2023/09/26 11:00:12;;;;;;;4.63;4.10;;;;;;;19.83;77.50;156460.41;4966609;28;20470;-87
2023/09/26 11:02:38;;;;;;;4.03;3.60;;;;;;;19.72;77.63;156431.72;4938963;28;20957;-87
2023/09/26 11:05:10;;;;;;;4.83;4.33;;;;;;;19.72;73.82;156433.03;4966885;28;20476;-87
2023/09/26 11:07:38;;;;;;;3.73;3.43;;;;;;;19.91;72.54;156481.22;4958995;28;20930;-87
2023/09/26 11:10:06;;;;;;;4.00;3.60;;;;;;;20.00;72.89;156504.72;4964959;28;20462;-87
2023/09/26 11:12:33;;;;;;;3.43;3.13;;;;;;;20.09;71.88;156528.22;4965828;28;20577;-87
2023/09/26 11:15:01;;;;;;;3.80;2.87;;;;;;;20.14;71.13;156539.94;4973995;28;20981;-87